British Tenacity — MDTE9 — position and weather

sailwx.info

Track history (hours):
 
Tides and Currents Weather Stations Pressure Air Temp Water Temp Dewpoint Dewpoint Depression Visibility Wind Speed Wind Dir Waves Ship Positions

British Tenacity

Last reported at 2014-Aug-29 18:29 UTC. Time now 2014-Aug-30 14:34 UTC.
Position N 53°30' E 009°57'.

Type: Ship (hazmat cat C). MMSI: 235825000.

Date/timePositionNaut miles runAvg speedWind from/ knotsBaromVisibWave heightAir tempDewpointWater temp
2014-Aug-29 18:29N 53°30' E 009°57'0 0.0
2014-Aug-29 17:29N 53°30' E 009°57'3 3.0
2014-Aug-29 16:33N 53°32' E 009°55'10 9.7
2014-Aug-29 15:33N 53°34' E 009°39'1111.2
2014-Aug-29 14:33N 53°43' E 009°28'1212.3
2014-Aug-29 13:33N 53°53' E 009°14'1111.2
2014-Aug-29 12:33N 53°51' E 008°56'1110.6
2014-Aug-29 11:33N 53°56' E 008°40'1813.6
2014-Aug-29 10:12N 53°60' E 008°09'812.1
2014-Aug-29 09:33N 54°02' E 007°57'6 5.7
2014-Aug-29 08:33N 54°04' E 007°48'3 3.0
2014-Aug-29 07:33N 54°06' E 007°43'1010.2
2014-Aug-29 06:33N 54°07' E 007°26'0 0.3
2014-Aug-29 05:33N 54°07' E 007°26'0 0.0
2014-Aug-29 04:30N 54°07' E 007°26'0 0.1
2014-Aug-29 03:27N 54°07' E 007°26'0 0.1
2014-Aug-29 02:30N 54°07' E 007°26'0 0.1
2014-Aug-29 01:33N 54°07' E 007°26'0 0.0
2014-Aug-29 00:33N 54°07' E 007°26'0 0.0
2014-Aug-28 23:33N 54°07' E 007°26'0 0.0
2014-Aug-28 21:07N 54°07' E 007°26'0 0.1
2014-Aug-28 20:33N 54°07' E 007°26'0 0.1
2014-Aug-28 19:33N 54°07' E 007°26'0 0.1
2014-Aug-28 18:30N 54°07' E 007°26'0 0.0
2014-Aug-28 17:33N 54°07' E 007°26'0 0.0
2014-Aug-28 16:33N 54°07' E 007°26'0 0.0
2014-Aug-28 15:27N 54°07' E 007°26'0 0.0
2014-Aug-28 14:14N 54°07' E 007°26'0 0.1
2014-Aug-28 13:32N 54°07' E 007°26'0 0.2
2014-Aug-28 12:32N 54°07' E 007°26'0 0.0
2014-Aug-28 11:29N 54°07' E 007°26'0 0.0
2014-Aug-28 10:11N 54°07' E 007°26'0 0.0
2014-Aug-28 09:32N 54°07' E 007°26'0 0.1
2014-Aug-28 08:32N 54°07' E 007°26'0 0.1
2014-Aug-28 07:05N 54°07' E 007°26'0 0.0
2014-Aug-28 06:32N 54°07' E 007°26'0 0.0
2014-Aug-28 05:32N 54°07' E 007°26'0 0.0
2014-Aug-28 04:32N 54°07' E 007°26'0 0.0
2014-Aug-28 03:29N 54°07' E 007°26'0 0.1
2014-Aug-28 02:23N 54°07' E 007°26'0 0.2
2014-Aug-28 01:29N 54°07' E 007°26'0 0.0
2014-Aug-28 00:32N 54°07' E 007°26'0 0.0
2014-Aug-27 23:23N 54°07' E 007°26'0 0.0
2014-Aug-27 22:32N 54°07' E 007°26'0 0.0
2014-Aug-27 21:29N 54°07' E 007°26'0 0.0
2014-Aug-27 20:32N 54°07' E 007°26'0 0.1
2014-Aug-27 19:29N 54°07' E 007°26'0 0.1
2014-Aug-27 18:20N 54°07' E 007°26'0 0.0
2014-Aug-27 17:29N 54°07' E 007°26'0 0.0
2014-Aug-27 16:29N 54°07' E 007°26'0 0.0
2014-Aug-27 15:32N 54°07' E 007°26'0 0.1
2014-Aug-27 14:29N 54°07' E 007°26'0 0.1
2014-Aug-27 13:10N 54°07' E 007°26'0 0.1
2014-Aug-27 12:29N 54°07' E 007°26'0 0.0
2014-Aug-27 10:32N 54°07' E 007°26'0 0.0
2014-Aug-27 09:29N 54°07' E 007°26'0 0.0
2014-Aug-27 08:32N 54°07' E 007°26'0 0.1
2014-Aug-27 07:31N 54°07' E 007°26'0 0.1
2014-Aug-27 06:28N 54°07' E 007°26'0 0.1
2014-Aug-27 05:31N 54°07' E 007°26'0 0.0
2014-Aug-27 04:31N 54°07' E 007°26'0 0.0
2014-Aug-27 03:28N 54°07' E 007°26'0 0.0
2014-Aug-27 02:28N 54°07' E 007°26'0 0.1
2014-Aug-27 00:28N 54°07' E 007°26'0 0.0
2014-Aug-26 23:31N 54°07' E 007°26'0 0.0
2014-Aug-26 22:31N 54°07' E 007°26'0 0.0
2014-Aug-26 21:28N 54°07' E 007°26'0 0.0
2014-Aug-26 20:13N 54°07' E 007°26'1 1.8
2014-Aug-26 19:33N 54°08' E 007°26'1413.7
2014-Aug-26 18:33N 54°22' E 007°23'1413.6
2014-Aug-26 17:33N 54°35' E 007°20'2013.1
2014-Aug-26 16:04N 54°54' E 007°09'4613.0
2014-Aug-26 12:33N 55°39' E 006°58'16012.3
2014-Aug-25 23:33N 57°47' E 009°52'1413.8
2014-Aug-25 22:33N 57°48' E 010°18'1413.6
2014-Aug-25 21:33N 57°50' E 010°43'9 8.9
2014-Aug-25 20:33N 57°43' E 010°55'1313.0
2014-Aug-25 19:33N 57°34' E 011°12'1312.8
2014-Aug-25 18:33N 57°25' E 011°28'1312.8
2014-Aug-25 17:33N 57°13' E 011°36'166 9.8
2014-Aug-25 00:33N 54°26' E 011°48'1212.0
2014-Aug-24 23:33N 54°27' E 012°09'1212.0
2014-Aug-24 22:33N 54°37' E 012°19'1312.3
2014-Aug-24 21:31N 54°44' E 012°37'1212.2
2014-Aug-24 20:33N 54°50' E 012°55'1312.6
2014-Aug-24 19:33N 54°54' E 013°16'1211.8
2014-Aug-24 18:33N 54°58' E 013°35'1712.0
2014-Aug-24 17:08N 55°04' E 014°02'711.5
2014-Aug-24 16:32N 55°08' E 014°13'1111.7
2014-Aug-24 15:33N 55°13' E 014°31'1211.7
2014-Aug-24 14:33N 55°20' E 014°48'1110.6
2014-Aug-24 13:32N 55°24' E 015°04'1312.5
2014-Aug-24 12:30N 55°32' E 015°23'2512.7
2014-Aug-24 10:30N 55°47' E 015°59'42012.7
2014-Aug-23 01:26N 60°01' E 026°29'1712.9
2014-Aug-23 00:06N 59°60' E 027°03'713.2
2014-Aug-22 23:33N 60°03' E 027°16'  
Track history (hours):
 
Tides and Currents Weather Stations Pressure Air Temp Water Temp Dewpoint Dewpoint Depression Visibility Wind Speed Wind Dir Waves Ship Positions

British Tenacity

Last reported at 2014-Aug-29 18:29 UTC. Time now 2014-Aug-30 14:34 UTC.
Position N 53°30' E 009°57'.

Type: Ship (hazmat cat C). MMSI: 235825000.

Date/timePositionNaut miles runAvg speedWind from/ knotsBaromVisibWave heightAir tempDewpointWater temp
2014-Aug-29 18:29N 53°30' E 009°57'0 0.0
2014-Aug-29 17:29N 53°30' E 009°57'3 3.0
2014-Aug-29 16:33N 53°32' E 009°55'10 9.7
2014-Aug-29 15:33N 53°34' E 009°39'1111.2
2014-Aug-29 14:33N 53°43' E 009°28'1212.3
2014-Aug-29 13:33N 53°53' E 009°14'1111.2
2014-Aug-29 12:33N 53°51' E 008°56'1110.6
2014-Aug-29 11:33N 53°56' E 008°40'1813.6
2014-Aug-29 10:12N 53°60' E 008°09'812.1
2014-Aug-29 09:33N 54°02' E 007°57'6 5.7
2014-Aug-29 08:33N 54°04' E 007°48'3 3.0
2014-Aug-29 07:33N 54°06' E 007°43'1010.2
2014-Aug-29 06:33N 54°07' E 007°26'0 0.3
2014-Aug-29 05:33N 54°07' E 007°26'0 0.0
2014-Aug-29 04:30N 54°07' E 007°26'0 0.1
2014-Aug-29 03:27N 54°07' E 007°26'0 0.1
2014-Aug-29 02:30N 54°07' E 007°26'0 0.1
2014-Aug-29 01:33N 54°07' E 007°26'0 0.0
2014-Aug-29 00:33N 54°07' E 007°26'0 0.0
2014-Aug-28 23:33N 54°07' E 007°26'0 0.0
2014-Aug-28 21:07N 54°07' E 007°26'0 0.1
2014-Aug-28 20:33N 54°07' E 007°26'0 0.1
2014-Aug-28 19:33N 54°07' E 007°26'0 0.1
2014-Aug-28 18:30N 54°07' E 007°26'0 0.0
2014-Aug-28 17:33N 54°07' E 007°26'0 0.0
2014-Aug-28 16:33N 54°07' E 007°26'0 0.0
2014-Aug-28 15:27N 54°07' E 007°26'0 0.0
2014-Aug-28 14:14N 54°07' E 007°26'0 0.1
2014-Aug-28 13:32N 54°07' E 007°26'0 0.2
2014-Aug-28 12:32N 54°07' E 007°26'0 0.0
2014-Aug-28 11:29N 54°07' E 007°26'0 0.0
2014-Aug-28 10:11N 54°07' E 007°26'0 0.0
2014-Aug-28 09:32N 54°07' E 007°26'0 0.1
2014-Aug-28 08:32N 54°07' E 007°26'0 0.1
2014-Aug-28 07:05N 54°07' E 007°26'0 0.0
2014-Aug-28 06:32N 54°07' E 007°26'0 0.0
2014-Aug-28 05:32N 54°07' E 007°26'0 0.0
2014-Aug-28 04:32N 54°07' E 007°26'0 0.0
2014-Aug-28 03:29N 54°07' E 007°26'0 0.1
2014-Aug-28 02:23N 54°07' E 007°26'0 0.2
2014-Aug-28 01:29N 54°07' E 007°26'0 0.0
2014-Aug-28 00:32N 54°07' E 007°26'0 0.0
2014-Aug-27 23:23N 54°07' E 007°26'0 0.0
2014-Aug-27 22:32N 54°07' E 007°26'0 0.0
2014-Aug-27 21:29N 54°07' E 007°26'0 0.0
2014-Aug-27 20:32N 54°07' E 007°26'0 0.1
2014-Aug-27 19:29N 54°07' E 007°26'0 0.1
2014-Aug-27 18:20N 54°07' E 007°26'0 0.0
2014-Aug-27 17:29N 54°07' E 007°26'0 0.0
2014-Aug-27 16:29N 54°07' E 007°26'0 0.0
2014-Aug-27 15:32N 54°07' E 007°26'0 0.1
2014-Aug-27 14:29N 54°07' E 007°26'0 0.1
2014-Aug-27 13:10N 54°07' E 007°26'0 0.1
2014-Aug-27 12:29N 54°07' E 007°26'0 0.0
2014-Aug-27 10:32N 54°07' E 007°26'0 0.0
2014-Aug-27 09:29N 54°07' E 007°26'0 0.0
2014-Aug-27 08:32N 54°07' E 007°26'0 0.1
2014-Aug-27 07:31N 54°07' E 007°26'0 0.1
2014-Aug-27 06:28N 54°07' E 007°26'0 0.1
2014-Aug-27 05:31N 54°07' E 007°26'0 0.0
2014-Aug-27 04:31N 54°07' E 007°26'0 0.0
2014-Aug-27 03:28N 54°07' E 007°26'0 0.0
2014-Aug-27 02:28N 54°07' E 007°26'0 0.1
2014-Aug-27 00:28N 54°07' E 007°26'0 0.0
2014-Aug-26 23:31N 54°07' E 007°26'0 0.0
2014-Aug-26 22:31N 54°07' E 007°26'0 0.0
2014-Aug-26 21:28N 54°07' E 007°26'0 0.0
2014-Aug-26 20:13N 54°07' E 007°26'1 1.8
2014-Aug-26 19:33N 54°08' E 007°26'1413.7
2014-Aug-26 18:33N 54°22' E 007°23'1413.6
2014-Aug-26 17:33N 54°35' E 007°20'2013.1
2014-Aug-26 16:04N 54°54' E 007°09'4613.0
2014-Aug-26 12:33N 55°39' E 006°58'16012.3
2014-Aug-25 23:33N 57°47' E 009°52'1413.8
2014-Aug-25 22:33N 57°48' E 010°18'1413.6
2014-Aug-25 21:33N 57°50' E 010°43'9 8.9
2014-Aug-25 20:33N 57°43' E 010°55'1313.0
2014-Aug-25 19:33N 57°34' E 011°12'1312.8
2014-Aug-25 18:33N 57°25' E 011°28'1312.8
2014-Aug-25 17:33N 57°13' E 011°36'166 9.8
2014-Aug-25 00:33N 54°26' E 011°48'1212.0
2014-Aug-24 23:33N 54°27' E 012°09'1212.0
2014-Aug-24 22:33N 54°37' E 012°19'1312.3
2014-Aug-24 21:31N 54°44' E 012°37'1212.2
2014-Aug-24 20:33N 54°50' E 012°55'1312.6
2014-Aug-24 19:33N 54°54' E 013°16'1211.8
2014-Aug-24 18:33N 54°58' E 013°35'1712.0
2014-Aug-24 17:08N 55°04' E 014°02'711.5
2014-Aug-24 16:32N 55°08' E 014°13'1111.7
2014-Aug-24 15:33N 55°13' E 014°31'1211.7
2014-Aug-24 14:33N 55°20' E 014°48'1110.6
2014-Aug-24 13:32N 55°24' E 015°04'1312.5
2014-Aug-24 12:30N 55°32' E 015°23'2512.7
2014-Aug-24 10:30N 55°47' E 015°59'42012.7
2014-Aug-23 01:26N 60°01' E 026°29'1712.9
2014-Aug-23 00:06N 59°60' E 027°03'713.2
2014-Aug-22 23:33N 60°03' E 027°16'  

Dump ship's entire track history